Lester B. Pearson International Airport
CYYZ : now visible

Airfield :











YOU CAN JOIN US ON...

 
LOGIN :

Register | Disclaimer

   EN    FR    IT 

 









Legend :    VFR   Marginal VFR   IFR   Intensive IFR   Very Intensive IFR
Visi :
Ceiling :
>= 8 km
>= 3000ft
5 to 8 km
1000 to 3000 ft
1500m to 5 km
500 to 1000 ft
800 to 1500m
200 to 500 ft
< 800m
< 200 ft
Symbols :   Thunderstorms  Fog  Heavy snow  Heavy precipitations  Wind > 20 kt






- Airport Elevation : 569 ft
- IATA code : YYZ


CYYZ - Lester B. Pearson International

CURRENT METAR :
  • 122200Z 14006G15KT 15SM SCT150 OVC220 M02/M07 A3041 RMK AC3CI5 SLP311

EXPIRED METARs :
  • 122100Z 14006KT 15SM FEW100 BKN150 OVC250 M03/M06 A3044 RMK AC1AC5CI2 SLP322
  • 122000Z 13006G15KT 15SM BKN097 BKN140 OVC240 M03/M07 A3047 RMK AC5AC1CI2 SLP330

TAF TAF CYYZ
Valid from the 12 at 21:00 until the 14 at 00:00 UTC


122039Z 1221/1324 15008KT P6SM BKN100 BKN140 OVC240
FM122200 15008KT P6SM SCT140 BKN240
BECMG 1300/1302 20008KT
FM132000 16008KT P6SM BKN060 BKN200
BECMG 1322/1324 08005KT RMK NXT FCST BY 130000Z



MET'MAP, your aeronautical weather chart ! - Copyright ORBIFLY December 2007 - Disclaimer

ORBIFLY MET'MAP TEAM :

Programming & Development : Alexandra Zaïnal
Concept & original design : Baudouin d'Aumeries
Assistance for programming : Marc-Olivier Méhu
Technical & hardware support : Manuel Goepfert

Contact : metmap@orbifly.com




SOURCES & CREDITS :

   NOAA       Earth
Advisory